Time;durP1;ratioP1;P1;durP2;ratioP2;P2;SDS_P1;SDS_P2;PMS_P1;PMS_P2;Temp;Humidity;BMP_temperature;BMP_pressure;BME280_temperature;BME280_humidity;BME280_pressure;Samples;Min_cycle;Max_cycle;Signal;HPM_P1;HPM_P2
2021/12/16 00:09:27;;;;;;;10.07;4.53;;;;;;;0.38;92.48;95434.03;4814504;29;20473;-62
2021/12/16 00:31:20;;;;;;;10.60;4.18;;;;;;;0.45;92.45;95428.16;4803977;29;20140;-63
2021/12/16 00:34:00;;;;;;;9.80;4.00;;;;;;;0.46;92.42;95426.25;4801683;29;20964;-63
2021/12/16 00:36:34;;;;;;;8.55;3.80;;;;;;;0.58;92.16;95432.66;4803466;29;20126;-62
2021/12/16 00:39:05;;;;;;;11.37;4.30;;;;;;;0.53;92.26;95437.41;4802445;29;20050;-63
2021/12/16 00:41:33;;;;;;;10.27;4.13;;;;;;;0.75;91.42;95436.50;4803359;29;20104;-63
2021/12/16 00:47:01;;;;;;;9.10;3.55;;;;;;;0.66;90.87;95441.88;4801040;29;21493;-63
2021/12/16 00:54:47;;;;;;;7.13;3.30;;;;;;;0.69;91.91;95432.38;4838413;29;20054;-63
2021/12/16 00:57:16;;;;;;;7.93;3.58;;;;;;;0.85;91.18;95425.41;4839336;29;20062;-61
2021/12/16 00:59:47;;;;;;;8.48;3.75;;;;;;;0.93;90.86;95431.94;4839234;29;20072;-63
2021/12/16 01:05:20;;;;;;;7.60;3.30;;;;;;;0.86;90.51;95439.69;4839503;29;20049;-63
2021/12/16 01:08:06;;;;;;;8.43;3.50;;;;;;;0.60;91.37;95440.44;4813753;29;21839;-63
2021/12/16 01:38:57;;;;;;;9.43;4.70;;;;;;;-0.19;96.19;95458.22;4802163;29;20051;-62
2021/12/16 01:47:18;;;;;;;9.33;4.50;;;;;;;0.08;95.44;95448.34;4801663;29;20055;-63
2021/12/16 01:50:01;;;;;;;8.98;4.10;;;;;;;0.18;94.98;95450.78;4804362;29;21508;-63
2021/12/16 01:57:35;;;;;;;9.73;5.20;;;;;;;0.47;93.47;95452.97;4838600;29;20098;-63
2021/12/16 02:00:10;;;;;;;10.47;4.70;;;;;;;0.64;93.27;95457.59;4838699;29;20175;-63
2021/12/16 02:05:25;;;;;;;7.72;4.13;;;;;;;0.81;92.11;95437.16;4838603;29;20058;-63
2021/12/16 02:10:31;;;;;;;9.23;4.70;;;;;;;0.69;91.40;95441.25;4804455;29;20107;-62
2021/12/16 02:35:30;;;;;;;9.73;4.57;;;;;;;0.54;91.87;95439.81;4801383;29;20527;-63
2021/12/16 02:37:48;;;;;;;11.63;5.15;;;;;;;0.12;92.98;95433.13;4802122;29;21836;-63
2021/12/16 02:40:18;;;;;;;11.10;4.97;;;;;;;0.34;92.99;95430.38;4801929;29;20055;-61
2021/12/16 02:50:51;;;;;;;13.85;5.60;;;;;;;0.13;94.49;95448.22;4828527;29;20095;-63
2021/12/16 02:53:18;;;;;;;12.70;5.40;;;;;;;0.18;94.01;95443.50;4855568;29;20118;-63
2021/12/16 02:55:46;;;;;;;12.13;4.95;;;;;;;0.26;94.24;95443.81;4841900;29;20050;-63
2021/12/16 02:58:15;;;;;;;8.50;4.20;;;;;;;0.07;92.98;95446.78;4841717;29;20114;-63
2021/12/16 03:00:46;;;;;;;9.85;3.72;;;;;;;0.01;93.74;95446.09;4841149;29;21133;-62
2021/12/16 03:03:13;;;;;;;7.43;3.40;;;;;;;-0.03;93.10;95445.13;4841929;29;20053;-63
2021/12/16 03:05:39;;;;;;;9.03;4.00;;;;;;;-0.17;94.21;95439.03;4841146;29;20645;-63
2021/12/16 03:08:07;;;;;;;8.60;4.18;;;;;;;0.07;93.40;95434.06;4841413;29;20076;-63
2021/12/16 03:11:23;;;;;;;9.20;4.18;;;;;;;0.05;93.10;95432.78;4841333;29;20468;-63
2021/12/16 03:13:32;;;;;;;8.82;3.83;;;;;;;0.11;93.11;95431.53;4835857;29;20052;-63
2021/12/16 03:16:18;;;;;;;9.43;3.97;;;;;;;0.31;92.10;95430.97;4841058;29;20054;-63
2021/12/16 03:21:30;;;;;;;8.10;4.00;;;;;;;-0.12;93.03;95438.88;4841430;29;20048;-63
2021/12/16 03:26:57;;;;;;;8.43;3.92;;;;;;;-0.51;94.46;95441.19;4839587;29;20058;-62
2021/12/16 03:34:42;;;;;;;10.60;4.35;;;;;;;-0.57;96.17;95434.34;4821034;29;20070;-62
2021/12/16 03:37:22;;;;;;;10.50;5.15;;;;;;;-0.74;96.03;95436.94;4841119;29;20419;-63
2021/12/16 03:39:48;;;;;;;10.63;4.25;;;;;;;-0.56;95.83;95429.75;4839953;29;20593;-63
2021/12/16 03:42:22;;;;;;;10.00;4.50;;;;;;;-0.37;94.22;95426.84;4815195;29;20057;-62
2021/12/16 03:44:59;;;;;;;9.37;4.13;;;;;;;-0.33;94.47;95422.44;4808785;29;20501;-63
2021/12/16 03:47:45;;;;;;;9.27;4.25;;;;;;;-0.28;93.99;95428.50;4804171;29;20047;-62
2021/12/16 03:50:18;;;;;;;8.25;3.90;;;;;;;-0.15;92.98;95432.22;4832455;29;20519;-63
2021/12/16 03:52:47;;;;;;;8.07;3.53;;;;;;;-0.11;92.57;95425.09;4840250;29;21565;-63
2021/12/16 03:55:15;;;;;;;23.02;11.00;;;;;;;0.08;92.47;95434.84;4854646;29;20057;-62
2021/12/16 03:57:42;;;;;;;9.67;4.77;;;;;;;0.15;91.99;95440.63;4840580;29;20060;-63
2021/12/16 04:00:25;;;;;;;8.88;3.83;;;;;;;-0.24;92.12;95456.47;4838854;29;20087;-63
2021/12/16 04:02:52;;;;;;;7.80;3.50;;;;;;;-0.51;93.30;95457.38;4839758;29;20057;-63
2021/12/16 04:05:20;;;;;;;6.43;3.03;;;;;;;-0.70;94.22;95464.88;4840247;29;20054;-62
2021/12/16 04:07:48;;;;;;;6.38;2.83;;;;;;;-0.51;93.95;95459.28;4840564;29;20050;-63
2021/12/16 04:10:42;;;;;;;7.23;3.03;;;;;;;-0.39;93.32;95462.22;4838848;29;20542;-61
2021/12/16 04:13:13;;;;;;;8.88;4.05;;;;;;;-0.35;93.70;95468.59;4840428;29;20125;-63
2021/12/16 04:15:41;;;;;;;7.68;3.22;;;;;;;-0.42;93.70;95466.34;4839666;29;21716;-63
2021/12/16 04:18:08;;;;;;;6.20;2.80;;;;;;;-0.14;92.63;95463.50;4854120;29;20046;-63
2021/12/16 04:20:35;;;;;;;7.88;3.20;;;;;;;0.03;91.84;95467.41;4840111;29;20046;-63
2021/12/16 04:23:05;;;;;;;6.93;3.03;;;;;;;0.10;91.13;95460.44;4840136;29;20244;-62
2021/12/16 04:25:36;;;;;;;7.93;3.40;;;;;;;0.25;90.61;95461.16;4839728;29;20056;-63
2021/12/16 04:28:07;;;;;;;7.25;3.38;;;;;;;0.37;90.28;95453.25;4839972;29;20053;-63
2021/12/16 04:30:34;;;;;;;6.13;2.80;;;;;;;0.12;90.36;95460.94;4840005;29;20056;-63
2021/12/16 04:33:02;;;;;;;8.88;4.18;;;;;;;-0.05;91.58;95461.63;4839770;29;20046;-63
2021/12/16 04:35:29;;;;;;;14.53;5.20;;;;;;;0.10;91.54;95467.72;4839712;29;20427;-63
2021/12/16 04:37:56;;;;;;;12.98;4.15;;;;;;;0.13;90.97;95467.91;4823412;29;20058;-63
2021/12/16 04:40:23;;;;;;;13.00;4.65;;;;;;;0.28;91.20;95463.22;4835892;29;20054;-63
2021/12/16 04:42:52;;;;;;;26.65;7.22;;;;;;;0.30;90.43;95464.50;4810621;29;20264;-62
2021/12/16 04:45:20;;;;;;;19.25;5.93;;;;;;;0.34;90.40;95468.19;4821133;29;20058;-62
2021/12/16 04:47:47;;;;;;;11.23;3.90;;;;;;;0.42;90.34;95477.41;4821503;29;20050;-61
2021/12/16 04:50:16;;;;;;;9.23;3.85;;;;;;;0.49;89.96;95477.75;4828375;29;20503;-60
2021/12/16 04:52:43;;;;;;;9.07;3.80;;;;;;;0.49;90.06;95471.56;4839735;29;20114;-62
2021/12/16 04:55:13;;;;;;;12.00;5.95;;;;;;;0.53;90.14;95476.00;4839360;29;20053;-62
2021/12/16 04:57:41;;;;;;;11.07;5.75;;;;;;;0.58;89.72;95467.78;4838578;29;21777;-62
2021/12/16 05:00:12;;;;;;;9.37;4.50;;;;;;;0.55;89.98;95475.72;4838253;29;20409;-62
2021/12/16 05:02:39;;;;;;;9.00;4.38;;;;;;;0.54;90.11;95485.72;4852689;29;20080;-62
2021/12/16 05:05:07;;;;;;;9.77;4.00;;;;;;;0.63;90.41;95480.34;4839388;29;20054;-62
2021/12/16 05:07:34;;;;;;;8.23;3.80;;;;;;;0.66;90.44;95484.31;4838976;29;20049;-62
2021/12/16 05:10:06;;;;;;;8.80;4.47;;;;;;;0.68;90.58;95482.09;4838758;29;20049;-62
2021/12/16 05:12:38;;;;;;;8.87;4.33;;;;;;;0.66;90.89;95479.69;4852238;29;20072;-62
2021/12/16 05:15:09;;;;;;;8.82;4.40;;;;;;;0.66;90.53;95474.28;4839133;29;20049;-62
2021/12/16 05:17:42;;;;;;;9.40;4.50;;;;;;;0.68;90.88;95482.09;4837923;29;20503;-62
2021/12/16 05:20:13;;;;;;;10.23;4.00;;;;;;;0.68;91.04;95474.00;4839130;29;20072;-62
2021/12/16 05:27:58;;;;;;;12.80;5.63;;;;;;;0.34;92.61;95489.78;4839373;29;20057;-63
2021/12/16 05:30:25;;;;;;;11.25;4.93;;;;;;;0.19;93.58;95487.47;4838971;29;20070;-62
2021/12/16 05:32:52;;;;;;;10.60;5.30;;;;;;;0.20;94.15;95480.94;4839031;29;20188;-63
2021/12/16 05:35:22;;;;;;;11.10;5.40;;;;;;;0.11;94.63;95490.94;4837403;29;20060;-62
2021/12/16 05:37:49;;;;;;;154.47;63.20;;;;;;;0.24;94.79;95494.63;4839127;29;20042;-63
2021/12/16 05:40:25;;;;;;;28.08;11.05;;;;;;;0.07;94.69;95489.97;4836179;29;20070;-63
2021/12/16 05:42:55;;;;;;;15.65;6.40;;;;;;;-0.12;95.98;95496.38;4810105;29;20046;-63
2021/12/16 05:45:23;;;;;;;15.10;6.68;;;;;;;-0.10;96.40;95490.66;4816314;29;20062;-62
2021/12/16 05:47:57;;;;;;;17.63;7.88;;;;;;;-0.09;96.62;95492.25;4816327;29;20058;-63
2021/12/16 05:50:26;;;;;;;18.87;8.37;;;;;;;0.01;96.75;95508.19;4819213;29;20060;-62
2021/12/16 05:52:53;;;;;;;19.00;8.23;;;;;;;0.04;96.56;95504.06;4838565;29;20054;-64
2021/12/16 05:55:21;;;;;;;20.85;9.05;;;;;;;0.08;96.50;95502.34;4836754;29;20054;-62
2021/12/16 05:57:49;;;;;;;17.50;8.40;;;;;;;0.09;96.56;95514.75;4838788;29;20054;-63
2021/12/16 06:00:28;;;;;;;16.85;8.07;;;;;;;0.10;96.35;95510.91;4838123;29;20057;-62
2021/12/16 06:02:54;;;;;;;13.27;6.50;;;;;;;0.01;96.45;95510.88;4838115;29;20056;-63
2021/12/16 06:05:21;;;;;;;14.52;7.00;;;;;;;-0.02;96.33;95514.19;4838180;29;20057;-62
2021/12/16 06:07:50;;;;;;;15.10;6.95;;;;;;;0.09;96.34;95514.75;4838722;29;20066;-63
2021/12/16 06:13:06;;;;;;;13.95;6.65;;;;;;;0.11;95.88;95528.72;4818940;29;20060;-63
2021/12/16 06:29:24;;;;;;;13.10;6.00;;;;;;;0.25;96.25;95544.84;4839164;29;20527;-63
2021/12/16 06:31:51;;;;;;;18.58;8.65;;;;;;;0.14;96.42;95545.09;4836851;29;20065;-63
2021/12/16 06:34:18;;;;;;;17.75;7.60;;;;;;;0.23;95.93;95549.75;4841495;29;20504;-62
2021/12/16 06:36:46;;;;;;;18.23;7.03;;;;;;;0.19;96.18;95546.88;4840798;29;20058;-63
2021/12/16 06:39:12;;;;;;;14.77;6.55;;;;;;;-0.03;95.80;95558.47;4841952;29;20064;-63
2021/12/16 06:41:40;;;;;;;13.63;6.10;;;;;;;0.08;96.28;95554.44;4841375;29;20434;-63
2021/12/16 06:44:22;;;;;;;16.45;6.50;;;;;;;0.01;96.81;95550.56;4855549;29;20073;-63
2021/12/16 06:46:51;;;;;;;17.48;7.22;;;;;;;0.01;96.62;95547.88;4841257;29;20847;-63
2021/12/16 06:49:20;;;;;;;20.65;7.53;;;;;;;-0.06;96.74;95551.81;4841079;29;20049;-62
2021/12/16 06:52:00;;;;;;;32.50;9.85;;;;;;;-0.15;96.61;95547.44;4841921;29;20050;-63
2021/12/16 06:54:34;;;;;;;38.97;11.03;;;;;;;-0.02;97.42;95557.38;4840069;29;20075;-63
2021/12/16 06:57:25;;;;;;;36.25;11.27;;;;;;;0.10;96.67;95554.09;4841249;29;20081;-63
2021/12/16 07:00:05;;;;;;;33.72;11.80;;;;;;;0.12;96.46;95555.41;4841088;29;20708;-62
2021/12/16 07:05:05;;;;;;;23.00;8.57;;;;;;;0.17;96.02;95559.88;4841461;29;20046;-61
2021/12/16 07:07:32;;;;;;;20.93;8.00;;;;;;;0.16;95.95;95563.66;4841230;29;20050;-61
2021/12/16 07:09:59;;;;;;;31.25;10.20;;;;;;;0.21;95.95;95560.84;4834974;29;20053;-64
2021/12/16 07:12:35;;;;;;;25.40;8.98;;;;;;;0.39;96.00;95557.13;4814654;29;20108;-63
2021/12/16 07:15:10;;;;;;;20.50;9.20;;;;;;;0.51;94.99;95569.28;4804927;29;20119;-64
2021/12/16 07:17:39;;;;;;;20.80;9.00;;;;;;;0.54;94.79;95576.75;4810622;29;20054;-63
2021/12/16 07:20:09;;;;;;;18.20;8.10;;;;;;;0.55;94.92;95567.56;4813782;29;20046;-64
2021/12/16 07:22:35;;;;;;;16.58;7.70;;;;;;;0.69;94.53;95568.25;4804661;29;20057;-63
2021/12/16 07:25:05;;;;;;;21.77;8.27;;;;;;;0.53;94.29;95575.16;4805216;29;20043;-63
2021/12/16 07:27:34;;;;;;;18.45;7.55;;;;;;;0.46;94.41;95575.59;4804357;29;20055;-63
2021/12/16 07:30:06;;;;;;;16.45;6.95;;;;;;;0.30;94.79;95577.91;4804465;29;20489;-64
2021/12/16 07:32:33;;;;;;;15.10;6.50;;;;;;;0.44;94.81;95579.72;4817581;29;20307;-63
2021/12/16 07:35:00;;;;;;;22.65;7.43;;;;;;;0.50;94.74;95583.88;4803718;29;20054;-63
2021/12/16 07:37:27;;;;;;;21.50;7.95;;;;;;;0.52;95.02;95579.75;4818104;29;20067;-63
2021/12/16 07:39:54;;;;;;;17.67;6.55;;;;;;;0.59;94.74;95584.72;4804602;29;20053;-63
2021/12/16 07:42:28;;;;;;;18.98;7.05;;;;;;;0.69;94.41;95581.75;4803689;29;20420;-63
2021/12/16 07:44:54;;;;;;;23.50;8.90;;;;;;;0.69;93.65;95584.47;4804692;29;20134;-63
2021/12/16 07:47:21;;;;;;;20.52;8.60;;;;;;;0.73;94.40;95590.03;4803845;29;20062;-63
2021/12/16 07:49:49;;;;;;;20.70;7.82;;;;;;;0.76;93.97;95592.91;4812909;29;20083;-63
2021/12/16 07:52:20;;;;;;;26.27;8.70;;;;;;;0.93;93.99;95594.91;4840256;29;20052;-63
2021/12/16 07:54:47;;;;;;;20.15;8.85;;;;;;;0.98;93.58;95600.13;4839544;29;20050;-63
2021/12/16 07:57:14;;;;;;;21.87;7.80;;;;;;;1.08;93.70;95592.88;4839905;29;20058;-58
2021/12/16 07:59:40;;;;;;;30.55;13.82;;;;;;;1.19;93.54;95594.19;4840942;29;20062;-63
2021/12/16 08:02:11;;;;;;;18.85;7.55;;;;;;;0.98;93.23;95592.03;4840357;29;20054;-63
2021/12/16 08:04:43;;;;;;;15.63;6.35;;;;;;;0.90;93.32;95602.81;4840128;29;20529;-63
2021/12/16 08:07:14;;;;;;;16.15;7.95;;;;;;;0.75;93.84;95598.63;4838015;29;20044;-64
2021/12/16 08:09:41;;;;;;;18.20;6.77;;;;;;;0.99;93.77;95596.34;4823298;29;20639;-63
2021/12/16 08:12:12;;;;;;;11.18;4.88;;;;;;;0.75;93.39;95595.94;4821590;29;20165;-62
2021/12/16 08:14:42;;;;;;;12.93;4.93;;;;;;;0.74;94.82;95602.44;4820523;29;20054;-64
2021/12/16 08:17:09;;;;;;;11.23;4.47;;;;;;;0.94;94.10;95603.78;4805194;29;20066;-63
2021/12/16 08:19:36;;;;;;;13.80;5.15;;;;;;;1.15;93.49;95606.75;4816438;29;20055;-64
2021/12/16 08:22:04;;;;;;;13.87;5.30;;;;;;;1.27;93.46;95606.94;4816908;29;20059;-64
2021/12/16 08:24:32;;;;;;;12.85;5.40;;;;;;;1.37;92.93;95603.13;4803438;29;20130;-64
2021/12/16 08:26:58;;;;;;;16.98;7.00;;;;;;;1.45;92.74;95607.78;4802887;29;20058;-64
2021/12/16 08:29:25;;;;;;;16.60;6.05;;;;;;;1.56;92.30;95610.97;4820621;29;20061;-64
2021/12/16 08:31:52;;;;;;;28.50;13.35;;;;;;;1.06;92.91;95616.72;4803397;29;20051;-64
2021/12/16 08:34:19;;;;;;;20.53;8.80;;;;;;;1.32;92.95;95614.09;4802763;29;20061;-64
2021/12/16 08:36:46;;;;;;;16.35;7.70;;;;;;;1.15;92.91;95615.66;4803838;29;20055;-64
2021/12/16 08:39:16;;;;;;;15.95;5.88;;;;;;;1.14;93.97;95611.34;4803271;29;20394;-62
2021/12/16 08:41:54;;;;;;;19.30;8.25;;;;;;;1.08;93.88;95619.91;4803907;29;20058;-64
2021/12/16 08:44:21;;;;;;;15.10;7.57;;;;;;;1.36;93.36;95620.47;4803249;29;20885;-63
2021/12/16 08:46:53;;;;;;;14.27;6.03;;;;;;;1.37;92.61;95614.75;4803498;29;20102;-63
2021/12/16 08:49:20;;;;;;;13.50;5.15;;;;;;;1.45;92.28;95617.78;4804168;29;20066;-62
2021/12/16 08:51:54;;;;;;;12.93;5.53;;;;;;;1.28;92.49;95616.63;4840281;29;20056;-62
2021/12/16 08:54:22;;;;;;;16.42;5.50;;;;;;;1.16;93.85;95619.94;4839189;29;20053;-62
2021/12/16 08:56:49;;;;;;;16.42;6.68;;;;;;;1.12;93.20;95631.69;4839623;29;20065;-62
2021/12/16 08:59:19;;;;;;;19.57;7.17;;;;;;;1.41;93.13;95636.56;4839097;29;20052;-62
2021/12/16 09:01:50;;;;;;;13.07;5.18;;;;;;;1.65;92.58;95632.63;4839765;29;20046;-62
2021/12/16 09:04:19;;;;;;;14.35;5.47;;;;;;;1.78;91.32;95642.50;4838909;29;20064;-61
2021/12/16 09:06:47;;;;;;;9.65;4.40;;;;;;;1.75;90.77;95643.13;4839507;29;20416;-62
2021/12/16 09:09:14;;;;;;;16.92;6.65;;;;;;;1.71;92.02;95653.00;4838990;29;20060;-60
2021/12/16 09:12:00;;;;;;;15.67;6.10;;;;;;;1.75;91.50;95649.38;4839455;29;20066;-63
2021/12/16 09:14:27;;;;;;;15.45;5.80;;;;;;;1.87;91.07;95656.03;4837183;29;20058;-62
2021/12/16 09:16:54;;;;;;;13.20;5.57;;;;;;;1.71;90.84;95664.66;4839354;29;20054;-62
2021/12/16 09:19:21;;;;;;;16.95;6.20;;;;;;;1.37;91.75;95673.47;4838542;29;20052;-62
2021/12/16 09:21:48;;;;;;;13.43;5.57;;;;;;;1.31;93.02;95664.69;4838153;29;20075;-62
2021/12/16 09:24:15;;;;;;;13.80;4.73;;;;;;;1.47;93.06;95662.34;4838741;29;20454;-62
2021/12/16 09:26:43;;;;;;;11.82;4.72;;;;;;;1.69;92.63;95668.75;4839336;29;20159;-63
2021/12/16 09:29:12;;;;;;;9.80;4.30;;;;;;;1.77;91.72;95671.50;4821345;29;20493;-62
2021/12/16 09:31:39;;;;;;;11.75;4.45;;;;;;;1.76;91.42;95659.06;4809671;29;20423;-62
2021/12/16 09:34:08;;;;;;;12.13;5.03;;;;;;;1.75;91.82;95668.31;4821043;29;20050;-62
2021/12/16 09:36:43;;;;;;;11.70;5.67;;;;;;;1.89;91.82;95675.47;4820750;29;20043;-62
2021/12/16 09:39:16;;;;;;;13.05;5.50;;;;;;;2.11;91.29;95672.66;4821238;29;20370;-62
2021/12/16 09:41:47;;;;;;;9.82;4.47;;;;;;;2.30;90.67;95680.47;4820440;29;21556;-62
2021/12/16 09:44:16;;;;;;;7.55;3.50;;;;;;;2.26;89.06;95674.09;4820783;29;20049;-58
2021/12/16 09:46:45;;;;;;;7.15;3.00;;;;;;;2.14;87.98;95663.88;4821508;29;20052;-63
2021/12/16 09:49:12;;;;;;;9.30;4.40;;;;;;;1.89;90.43;95657.34;4821101;29;20102;-62
2021/12/16 09:51:41;;;;;;;10.70;5.78;;;;;;;1.67;91.23;95643.91;4838485;29;20062;-62
2021/12/16 09:54:11;;;;;;;13.13;6.55;;;;;;;1.86;90.90;95644.44;4839136;29;20453;-63
2021/12/16 09:56:40;;;;;;;14.88;6.50;;;;;;;1.94;91.03;95659.88;4838381;29;20053;-62
2021/12/16 09:59:10;;;;;;;12.48;6.30;;;;;;;2.20;90.58;95669.94;4841857;29;20109;-63
2021/12/16 10:01:37;;;;;;;14.80;7.00;;;;;;;2.30;90.01;95671.53;4842633;29;20226;-62
2021/12/16 10:04:07;;;;;;;8.77;4.65;;;;;;;2.26;89.29;95670.59;4842928;29;20054;-63
2021/12/16 10:06:36;;;;;;;8.75;4.57;;;;;;;2.40;89.02;95672.00;4842453;29;20080;-63
2021/12/16 10:09:06;;;;;;;10.25;4.20;;;;;;;2.45;88.77;95667.53;4842728;29;20122;-63
2021/12/16 10:11:36;;;;;;;10.48;4.15;;;;;;;2.43;88.14;95672.47;4856183;29;20054;-63
2021/12/16 10:19:33;;;;;;;7.63;3.35;;;;;;;2.16;87.28;95653.53;4841953;29;20054;-62
2021/12/16 10:22:20;;;;;;;9.32;3.33;;;;;;;2.43;86.73;95654.28;4842846;29;20110;-63
2021/12/16 10:24:49;;;;;;;9.75;3.70;;;;;;;2.59;86.14;95643.75;4841600;29;20679;-63
2021/12/16 10:27:19;;;;;;;8.03;3.43;;;;;;;2.56;85.66;95645.19;4841987;29;20050;-62
2021/12/16 10:29:54;;;;;;;7.90;3.78;;;;;;;2.59;85.80;95647.25;4816360;29;20092;-63
2021/12/16 10:32:42;;;;;;;10.40;4.90;;;;;;;2.72;85.62;95640.06;4817598;29;20054;-62
2021/12/16 10:35:29;;;;;;;7.50;3.80;;;;;;;2.44;86.28;95642.34;4823880;29;20042;-63
2021/12/16 10:38:02;;;;;;;6.63;3.40;;;;;;;2.52;85.56;95641.53;4823266;29;20626;-63
2021/12/16 10:40:50;;;;;;;8.73;4.30;;;;;;;2.46;84.84;95650.16;4836899;29;20061;-62
2021/12/16 10:43:25;;;;;;;5.63;2.80;;;;;;;2.26;85.35;95643.50;4823296;29;20054;-61
2021/12/16 10:45:57;;;;;;;9.18;3.88;;;;;;;2.11;85.98;95652.88;4824091;29;20066;-63
2021/12/16 10:48:31;;;;;;;6.45;3.10;;;;;;;1.92;87.21;95648.56;4823122;29;20046;-63
2021/12/16 10:51:18;;;;;;;5.85;2.75;;;;;;;2.09;85.75;95655.09;4836803;29;20102;-63
2021/12/16 10:54:08;;;;;;;7.13;3.47;;;;;;;2.21;86.19;95647.13;4841459;29;20494;-63
2021/12/16 10:56:46;;;;;;;7.45;3.58;;;;;;;2.56;85.52;95652.53;4841590;29;20052;-62
2021/12/16 10:59:15;;;;;;;7.35;3.75;;;;;;;2.53;84.73;95645.84;4842052;29;20050;-63
2021/12/16 11:01:57;;;;;;;6.10;3.30;;;;;;;2.54;84.87;95635.81;4841234;29;20160;-63
2021/12/16 11:04:47;;;;;;;5.40;2.97;;;;;;;2.69;84.86;95639.91;4841249;29;20052;-62
2021/12/16 11:07:25;;;;;;;5.87;2.43;;;;;;;2.36;83.77;95648.59;4841496;29;20057;-62
2021/12/16 11:10:12;;;;;;;5.65;2.65;;;;;;;2.46;84.80;95644.75;4840175;29;20202;-63
2021/12/16 11:12:49;;;;;;;6.78;3.30;;;;;;;2.68;84.34;95638.34;4840945;29;20057;-63
2021/12/16 11:15:33;;;;;;;6.88;3.53;;;;;;;2.89;84.46;95628.38;4841119;29;20042;-62
2021/12/16 11:18:13;;;;;;;7.88;4.05;;;;;;;2.82;83.67;95627.28;4841483;29;20050;-63
2021/12/16 11:20:52;;;;;;;7.47;3.87;;;;;;;2.80;83.37;95633.03;4840814;29;20160;-63
2021/12/16 11:23:21;;;;;;;7.68;4.20;;;;;;;3.04;82.94;95632.47;4840701;29;20064;-64
2021/12/16 11:25:53;;;;;;;6.63;3.75;;;;;;;3.13;83.00;95627.81;4841209;29;20046;-63
2021/12/16 11:28:31;;;;;;;9.15;4.78;;;;;;;3.27;82.61;95627.59;4839558;29;20080;-62
2021/12/16 11:31:07;;;;;;;10.23;4.97;;;;;;;3.23;82.04;95634.78;4841551;29;20048;-63
2021/12/16 11:33:38;;;;;;;11.00;5.80;;;;;;;3.13;82.51;95632.44;4840834;29;20090;-63
2021/12/16 11:36:21;;;;;;;20.17;9.32;;;;;;;3.18;82.61;95629.56;4841283;29;20064;-63
2021/12/16 11:38:54;;;;;;;13.43;7.07;;;;;;;3.28;82.36;95631.91;4840488;29;21682;-63
2021/12/16 11:41:49;;;;;;;9.55;4.60;;;;;;;3.30;82.21;95628.84;4840302;29;20093;-63
2021/12/16 11:44:32;;;;;;;8.90;3.75;;;;;;;3.28;81.56;95628.38;4854627;29;20137;-62
2021/12/16 11:47:15;;;;;;;8.73;4.10;;;;;;;3.28;81.95;95629.19;4841341;29;20056;-63
2021/12/16 11:49:59;;;;;;;11.45;5.68;;;;;;;2.99;82.70;95638.84;4816112;29;20109;-63
2021/12/16 11:52:32;;;;;;;10.75;5.13;;;;;;;3.08;82.86;95632.59;4822188;29;20058;-63
2021/12/16 11:55:01;;;;;;;10.68;4.90;;;;;;;3.00;83.09;95626.13;4822660;29;20065;-63
2021/12/16 11:57:48;;;;;;;10.02;4.90;;;;;;;3.15;82.88;95622.84;4821653;29;20066;-64
2021/12/16 12:00:26;;;;;;;8.30;4.00;;;;;;;3.26;81.63;95626.00;4820837;29;20080;-62
2021/12/16 12:02:57;;;;;;;8.68;4.30;;;;;;;2.75;82.33;95620.44;4822540;29;20058;-62
2021/12/16 12:05:35;;;;;;;6.60;3.33;;;;;;;2.96;82.59;95620.53;4825598;29;20042;-62
2021/12/16 12:08:23;;;;;;;7.18;3.70;;;;;;;3.23;81.99;95626.66;4840683;29;20365;-63
2021/12/16 12:11:02;;;;;;;8.95;4.70;;;;;;;3.37;81.73;95626.44;4839851;29;20415;-62
2021/12/16 12:13:38;;;;;;;8.83;4.40;;;;;;;3.25;81.78;95620.91;4840084;29;20487;-62
2021/12/16 12:16:07;;;;;;;9.02;4.60;;;;;;;3.30;82.00;95618.81;4840708;29;20056;-62
2021/12/16 12:18:42;;;;;;;7.80;4.25;;;;;;;3.32;82.19;95615.75;4839854;29;20057;-62
2021/12/16 12:21:28;;;;;;;8.30;4.03;;;;;;;3.15;81.45;95624.78;4840106;29;20129;-62
2021/12/16 12:24:33;;;;;;;6.43;3.30;;;;;;;2.93;81.66;95623.88;4839854;29;20046;-63
2021/12/16 12:27:03;;;;;;;6.83;3.50;;;;;;;2.89;82.15;95622.16;4749670;30;20051;-62
2021/12/16 12:29:38;;;;;;;7.47;3.30;;;;;;;3.27;81.11;95618.66;4827618;29;20120;-62
2021/12/16 12:32:11;;;;;;;8.02;4.05;;;;;;;3.26;81.60;95612.44;4840414;29;20481;-63
2021/12/16 12:34:41;;;;;;;6.28;3.20;;;;;;;3.19;80.82;95612.94;4839737;29;20050;-63
2021/12/16 12:37:11;;;;;;;6.43;3.50;;;;;;;3.10;81.27;95608.66;4840588;29;20056;-63
2021/12/16 12:39:42;;;;;;;5.70;2.93;;;;;;;3.20;80.87;95611.03;4840165;29;20507;-63
2021/12/16 12:42:11;;;;;;;6.65;3.50;;;;;;;3.49;80.71;95599.38;4840477;29;20068;-63
2021/12/16 12:44:39;;;;;;;9.02;4.18;;;;;;;3.46;80.56;95608.19;4839747;29;20046;-63
2021/12/16 12:47:10;;;;;;;7.97;3.42;;;;;;;3.17;80.61;95600.81;4839006;29;20052;-63
2021/12/16 12:49:37;;;;;;;7.97;3.60;;;;;;;2.88;82.31;95605.09;4809557;29;20050;-63
2021/12/16 12:52:08;;;;;;;7.27;3.33;;;;;;;3.27;81.60;95605.88;4821947;29;20047;-62
2021/12/16 12:54:37;;;;;;;7.68;3.80;;;;;;;3.13;81.26;95597.97;4821276;29;20050;-63
2021/12/16 12:57:31;;;;;;;8.25;4.18;;;;;;;3.47;80.87;95592.69;4821315;29;20464;-63
2021/12/16 13:00:00;;;;;;;8.18;4.30;;;;;;;3.62;80.26;95592.09;4820668;29;20668;-63
2021/12/16 13:02:36;;;;;;;8.50;4.45;;;;;;;3.78;80.59;95578.72;4820619;29;20103;-63
2021/12/16 13:05:19;;;;;;;9.77;5.30;;;;;;;3.83;80.01;95589.41;4822456;29;20458;-63
2021/12/16 13:07:55;;;;;;;8.40;4.78;;;;;;;3.78;79.66;95587.69;4838989;29;20926;-64
2021/12/16 13:10:27;;;;;;;9.35;4.90;;;;;;;3.86;79.13;95583.31;4838835;29;20092;-63
2021/12/16 13:13:16;;;;;;;12.13;5.80;;;;;;;3.58;79.92;95591.16;4839685;29;20045;-63
2021/12/16 13:15:51;;;;;;;7.50;4.22;;;;;;;3.63;79.30;95591.00;4838699;29;20960;-63
2021/12/16 13:26:46;;;;;;;8.02;4.32;;;;;;;3.55;78.44;95587.19;4838409;29;20149;-63
2021/12/16 13:29:53;;;;;;;7.22;4.15;;;;;;;3.48;78.96;95588.84;4838081;29;20379;-64
2021/12/16 13:32:31;;;;;;;9.37;4.80;;;;;;;3.30;79.70;95602.53;4836617;29;22256;-63
2021/12/16 13:37:44;;;;;;;8.00;4.43;;;;;;;3.64;79.13;95589.06;4838724;29;20042;-63
2021/12/16 13:40:24;;;;;;;8.05;4.60;;;;;;;2.81;81.29;95596.66;4839221;29;20054;-63
2021/12/16 13:43:11;;;;;;;8.25;4.47;;;;;;;3.20;81.05;95584.69;4838351;29;20064;-63
2021/12/16 13:45:52;;;;;;;9.80;5.17;;;;;;;3.49;80.49;95585.81;4838656;29;20045;-63
2021/12/16 14:05:30;;;;;;;20.65;9.38;;;;;;;3.59;80.53;95611.78;4823412;29;20230;-63
2021/12/16 14:08:04;;;;;;;13.05;6.70;;;;;;;3.56;80.17;95607.81;4852289;29;20267;-63
2021/12/16 14:10:59;;;;;;;13.80;6.40;;;;;;;3.26;81.20;95601.59;4838225;29;20441;-63
2021/12/16 14:25:30;;;;;;;9.93;5.43;;;;;;;3.25;80.91;95623.63;4838956;29;20054;-63
2021/12/16 14:42:27;;;;;;;9.97;4.70;;;;;;;2.99;81.68;95627.22;4837759;29;20239;-63
2021/12/16 14:48:25;;;;;;;8.85;4.47;;;;;;;2.98;81.97;95639.22;4818272;29;20591;-63
2021/12/16 14:51:01;;;;;;;9.55;4.90;;;;;;;2.70;82.52;95630.69;4819231;29;21568;-63
2021/12/16 14:53:39;;;;;;;10.30;4.60;;;;;;;2.89;81.96;95638.44;4823060;29;20058;-63
2021/12/16 14:56:09;;;;;;;10.13;4.57;;;;;;;2.96;81.68;95639.53;4823471;29;20050;-63
2021/12/16 14:58:38;;;;;;;14.98;7.22;;;;;;;3.11;81.86;95637.41;4823091;29;20054;-63
2021/12/16 15:01:08;;;;;;;13.68;7.70;;;;;;;2.89;82.38;95635.72;4822559;29;20501;-63
2021/12/16 15:03:40;;;;;;;11.00;5.53;;;;;;;2.92;82.85;95632.38;4822199;29;20055;-63
2021/12/16 15:06:27;;;;;;;13.38;7.47;;;;;;;3.08;81.64;95638.03;4832713;29;20117;-63
2021/12/16 15:11:43;;;;;;;10.05;4.65;;;;;;;3.11;80.80;95630.03;4841084;29;20042;-63
2021/12/16 15:14:30;;;;;;;12.82;5.68;;;;;;;2.97;81.35;95632.19;4841940;29;20046;-63
2021/12/16 15:39:38;;;;;;;13.50;7.25;;;;;;;2.77;82.90;95653.44;4841281;29;20050;-63
2021/12/16 15:45:18;;;;;;;15.10;6.43;;;;;;;2.94;82.68;95652.63;4836458;29;20241;-63
2021/12/16 15:47:50;;;;;;;11.35;5.93;;;;;;;3.07;82.67;95660.88;4840028;29;20795;-63
2021/12/16 15:50:25;;;;;;;13.60;6.57;;;;;;;3.10;82.50;95661.03;4840249;29;20050;-62
2021/12/16 15:52:54;;;;;;;13.93;7.10;;;;;;;3.17;82.07;95658.59;4826846;29;20080;-64
2021/12/16 15:55:48;;;;;;;23.50;10.50;;;;;;;3.16;82.79;95656.22;4820417;29;20058;-63
2021/12/16 15:58:21;;;;;;;20.30;10.23;;;;;;;3.00;82.92;95656.75;4821101;29;20062;-61
2021/12/16 16:00:52;;;;;;;18.15;8.98;;;;;;;2.97;82.63;95648.44;4822724;29;20058;-64
2021/12/16 16:03:20;;;;;;;16.97;7.80;;;;;;;3.06;82.04;95659.25;4821895;29;20061;-61